createdAt,value
2022-12-31T00:00:07.858Z,9.63
2022-12-31T00:02:35.085Z,9.18
2022-12-31T00:05:02.213Z,9.85
2022-12-31T00:07:29.014Z,9.80
2022-12-31T00:09:55.794Z,10.40
2022-12-31T00:12:22.608Z,9.10
2022-12-31T00:14:49.353Z,9.35
2022-12-31T00:17:16.133Z,9.52
2022-12-31T00:19:42.997Z,9.77
2022-12-31T00:22:10.123Z,9.88
2022-12-31T00:24:36.957Z,9.80
2022-12-31T00:27:03.835Z,10.48
2022-12-31T00:29:30.628Z,10.10
2022-12-31T00:31:57.389Z,9.43
2022-12-31T00:34:24.211Z,9.70
2022-12-31T00:36:51.129Z,9.85
2022-12-31T00:39:17.951Z,9.32
2022-12-31T00:41:44.951Z,9.60
2022-12-31T00:44:12.710Z,9.17
2022-12-31T00:49:05.537Z,10.00
2022-12-31T00:51:32.291Z,10.43
2022-12-31T00:53:59.176Z,9.90
2022-12-31T00:56:27.680Z,9.38
2022-12-31T00:58:54.617Z,10.30
2022-12-31T01:01:29.531Z,9.30
2022-12-31T01:03:59.912Z,9.93
2022-12-31T01:06:26.692Z,10.17
2022-12-31T01:08:54.093Z,9.45
2022-12-31T01:11:24.088Z,9.18
2022-12-31T01:14:11.160Z,10.05
2022-12-31T01:16:39.109Z,9.70
2022-12-31T01:19:08.331Z,10.17
2022-12-31T01:21:35.794Z,10.05
2022-12-31T01:24:02.607Z,10.32
2022-12-31T01:26:29.592Z,10.50
2022-12-31T01:28:56.407Z,9.75
2022-12-31T01:31:23.762Z,10.63
2022-12-31T01:33:51.393Z,10.18
2022-12-31T01:36:25.321Z,9.43
2022-12-31T01:38:53.525Z,9.90
2022-12-31T01:41:22.467Z,10.15
2022-12-31T01:43:56.420Z,10.23
2022-12-31T01:46:46.630Z,10.40
2022-12-31T01:49:20.246Z,9.73
2022-12-31T01:51:51.026Z,9.27
2022-12-31T01:54:18.610Z,9.15
2022-12-31T01:56:45.788Z,10.23
2022-12-31T01:59:12.688Z,10.05
2022-12-31T02:01:39.650Z,9.40
2022-12-31T02:04:08.952Z,9.68
2022-12-31T02:06:41.903Z,9.27
2022-12-31T02:09:09.054Z,9.70
2022-12-31T02:11:38.081Z,9.65
2022-12-31T02:14:09.259Z,10.13
2022-12-31T02:16:47.874Z,10.18
2022-12-31T02:19:38.951Z,9.73
2022-12-31T02:22:05.717Z,10.60
2022-12-31T02:25:09.913Z,9.20
2022-12-31T02:28:02.465Z,9.30
2022-12-31T02:30:31.307Z,9.60
2022-12-31T02:33:35.412Z,9.80
2022-12-31T02:36:05.173Z,9.37
2022-12-31T02:38:37.388Z,9.00
2022-12-31T02:41:04.273Z,8.20
2022-12-31T02:43:31.088Z,8.73
2022-12-31T02:46:19.690Z,8.98
2022-12-31T02:49:12.211Z,8.47
2022-12-31T02:51:50.872Z,7.80
2022-12-31T02:54:20.785Z,8.98
2022-12-31T02:57:09.436Z,9.35
2022-12-31T03:00:08.651Z,8.82
2022-12-31T03:02:35.688Z,8.33
2022-12-31T03:05:02.843Z,9.35
2022-12-31T03:07:33.027Z,9.13
2022-12-31T03:10:01.190Z,8.63
2022-12-31T03:12:48.501Z,8.45
2022-12-31T03:15:34.351Z,8.70
2022-12-31T03:18:39.330Z,8.68
2022-12-31T03:21:32.192Z,8.10
2022-12-31T03:24:17.312Z,7.78
2022-12-31T03:26:44.127Z,7.95
2022-12-31T03:29:10.888Z,8.40
2022-12-31T03:31:37.711Z,7.90
2022-12-31T03:34:04.538Z,8.25
2022-12-31T03:36:31.394Z,8.68
2022-12-31T03:38:58.214Z,8.25
2022-12-31T03:41:25.007Z,8.83
2022-12-31T03:43:51.810Z,8.27
2022-12-31T03:46:18.629Z,8.20
2022-12-31T03:48:45.450Z,8.40
2022-12-31T03:51:12.287Z,7.32
2022-12-31T03:53:39.113Z,7.47
2022-12-31T03:56:06.079Z,7.38
2022-12-31T03:58:32.907Z,7.72
2022-12-31T04:00:59.709Z,7.10
2022-12-31T04:03:26.657Z,7.53
2022-12-31T04:05:54.933Z,7.83
2022-12-31T04:08:21.788Z,7.18
2022-12-31T04:10:48.577Z,7.50
2022-12-31T04:13:15.357Z,7.93
2022-12-31T04:15:42.175Z,7.57
2022-12-31T04:18:08.975Z,8.03
2022-12-31T04:20:35.752Z,7.60
2022-12-31T04:23:02.533Z,7.22
2022-12-31T04:25:29.308Z,8.13
2022-12-31T04:27:56.092Z,7.90
2022-12-31T04:30:22.972Z,6.97
2022-12-31T04:32:49.748Z,6.97
2022-12-31T04:35:16.680Z,7.78
2022-12-31T04:37:43.449Z,7.15
2022-12-31T04:40:10.660Z,7.78
2022-12-31T04:42:37.466Z,7.60
2022-12-31T04:45:04.836Z,7.22
2022-12-31T04:47:31.609Z,7.13
2022-12-31T04:49:58.377Z,7.25
2022-12-31T04:52:25.182Z,8.07
2022-12-31T04:54:51.977Z,8.13
2022-12-31T04:57:18.750Z,7.32
2022-12-31T04:59:45.560Z,8.05
2022-12-31T05:02:12.565Z,8.52
2022-12-31T05:04:39.594Z,8.27
2022-12-31T05:07:06.446Z,8.20
2022-12-31T05:09:33.213Z,8.93
2022-12-31T05:12:00.139Z,8.55
2022-12-31T05:14:26.952Z,8.95
2022-12-31T05:16:53.880Z,8.32
2022-12-31T05:19:20.810Z,8.20
2022-12-31T05:22:07.510Z,8.80
2022-12-31T05:24:34.309Z,9.00
2022-12-31T05:27:01.076Z,9.32
2022-12-31T05:29:27.868Z,9.35
2022-12-31T05:31:54.689Z,9.37
2022-12-31T05:34:21.472Z,9.40
2022-12-31T05:36:48.249Z,9.48
2022-12-31T05:39:15.134Z,9.85
2022-12-31T05:41:41.892Z,9.82
2022-12-31T05:44:10.151Z,9.07
2022-12-31T05:46:36.933Z,9.32
2022-12-31T05:49:03.670Z,8.90
2022-12-31T05:51:30.467Z,9.30
2022-12-31T05:53:57.250Z,9.63
2022-12-31T05:56:24.068Z,9.07
2022-12-31T05:58:50.849Z,9.00
2022-12-31T06:01:17.693Z,9.18
2022-12-31T06:03:44.538Z,9.27
2022-12-31T06:06:11.371Z,9.05
2022-12-31T06:08:38.128Z,9.83
2022-12-31T06:11:05.109Z,9.57
2022-12-31T06:13:31.869Z,9.23
2022-12-31T06:15:58.853Z,8.93
2022-12-31T06:18:25.690Z,9.45
2022-12-31T06:20:52.690Z,8.67
2022-12-31T06:23:19.457Z,8.93
2022-12-31T06:25:46.228Z,9.52
2022-12-31T06:28:19.706Z,9.32
2022-12-31T06:30:47.452Z,9.52
2022-12-31T06:33:14.372Z,8.97
2022-12-31T06:35:41.207Z,9.30
2022-12-31T06:38:08.072Z,9.10
2022-12-31T06:40:37.646Z,8.88
2022-12-31T06:43:04.437Z,8.68
2022-12-31T06:45:31.249Z,8.80
2022-12-31T06:47:58.044Z,8.80
2022-12-31T06:50:24.825Z,8.35
2022-12-31T06:52:51.681Z,8.60
2022-12-31T06:55:18.757Z,8.05
2022-12-31T06:57:45.832Z,8.00
2022-12-31T07:00:13.367Z,8.80
2022-12-31T07:03:05.848Z,8.48
2022-12-31T07:05:51.118Z,8.18
2022-12-31T07:08:42.408Z,8.50
2022-12-31T07:11:19.634Z,7.73
2022-12-31T07:14:03.835Z,7.88
2022-12-31T07:16:48.610Z,7.88
2022-12-31T07:19:27.251Z,7.60
2022-12-31T07:21:54.470Z,8.07
2022-12-31T07:24:21.670Z,8.07
2022-12-31T07:26:57.010Z,8.45
2022-12-31T07:30:01.147Z,8.38
2022-12-31T07:32:52.377Z,8.32
2022-12-31T07:35:43.650Z,7.97
2022-12-31T07:38:42.769Z,7.83
2022-12-31T07:41:31.230Z,8.00
2022-12-31T07:44:08.607Z,8.00
2022-12-31T07:46:50.578Z,7.80
2022-12-31T07:49:17.735Z,8.13
2022-12-31T07:51:44.683Z,7.33
2022-12-31T07:54:14.083Z,7.50
2022-12-31T07:56:41.806Z,7.07
2022-12-31T07:59:36.361Z,7.25
2022-12-31T08:02:33.974Z,7.15
2022-12-31T08:05:05.722Z,7.50
2022-12-31T08:08:17.508Z,7.03
2022-12-31T08:11:07.171Z,6.70
2022-12-31T08:13:34.131Z,6.70
2022-12-31T08:16:02.036Z,6.63
2022-12-31T08:18:29.116Z,6.90
2022-12-31T08:21:03.470Z,7.38
2022-12-31T08:23:40.354Z,7.30
2022-12-31T08:26:30.269Z,6.78
2022-12-31T08:29:18.130Z,6.57
2022-12-31T08:32:17.726Z,6.53
2022-12-31T08:35:09.148Z,6.47
2022-12-31T08:37:41.956Z,6.22
2022-12-31T08:40:31.750Z,6.30
2022-12-31T08:43:26.176Z,6.45
2022-12-31T08:45:53.323Z,5.87
2022-12-31T08:48:30.054Z,5.85
2022-12-31T08:50:57.529Z,6.10
2022-12-31T08:53:24.672Z,5.93
2022-12-31T08:55:56.972Z,6.50
2022-12-31T08:58:45.290Z,6.00
2022-12-31T09:01:12.295Z,5.97
2022-12-31T09:03:55.829Z,6.00
2022-12-31T09:07:01.769Z,6.05
2022-12-31T09:10:03.012Z,5.53
2022-12-31T09:12:59.110Z,5.93
2022-12-31T09:15:45.830Z,5.60
2022-12-31T09:18:13.049Z,5.78
2022-12-31T09:20:43.367Z,5.72
2022-12-31T09:23:12.577Z,5.88
2022-12-31T09:25:45.754Z,5.93
2022-12-31T09:28:21.571Z,6.68
2022-12-31T09:30:58.915Z,6.68
2022-12-31T09:33:35.571Z,7.35
2022-12-31T09:36:05.856Z,7.20
2022-12-31T09:38:37.935Z,6.83
2022-12-31T09:41:17.469Z,6.78
2022-12-31T09:44:02.677Z,6.72
2022-12-31T09:47:23.847Z,6.80
2022-12-31T09:50:02.651Z,6.47
2022-12-31T09:52:54.248Z,6.50
2022-12-31T09:55:46.197Z,6.50
2022-12-31T09:58:17.076Z,5.97
2022-12-31T10:00:50.489Z,6.60
2022-12-31T10:03:35.952Z,6.03
2022-12-31T10:06:25.974Z,5.77
2022-12-31T10:09:11.611Z,6.35
2022-12-31T10:11:40.911Z,6.00
2022-12-31T10:14:47.555Z,6.15
2022-12-31T10:17:30.869Z,6.18
2022-12-31T10:20:05.992Z,5.57
2022-12-31T10:22:51.566Z,5.90
2022-12-31T10:25:38.476Z,6.38
2022-12-31T10:28:29.091Z,6.25
2022-12-31T10:31:08.940Z,6.15
2022-12-31T10:33:55.634Z,6.30
2022-12-31T10:36:59.950Z,5.72
2022-12-31T10:39:42.740Z,6.38
2022-12-31T10:42:31.050Z,6.65
2022-12-31T10:45:34.939Z,6.10
2022-12-31T10:48:26.052Z,5.67
2022-12-31T10:51:19.317Z,6.18
2022-12-31T10:54:12.396Z,6.32
2022-12-31T10:57:01.236Z,6.03
2022-12-31T10:59:46.829Z,5.68
2022-12-31T11:02:35.555Z,6.57
2022-12-31T11:05:39.570Z,6.80
2022-12-31T11:08:40.329Z,6.63
2022-12-31T11:11:31.562Z,6.45
2022-12-31T11:14:34.018Z,6.75
2022-12-31T11:17:12.831Z,6.60
2022-12-31T11:20:10.820Z,6.68
2022-12-31T11:23:16.169Z,6.22
2022-12-31T11:26:30.908Z,7.28
2022-12-31T11:29:03.885Z,6.45
2022-12-31T11:32:06.455Z,7.17
2022-12-31T11:34:58.155Z,7.55
2022-12-31T11:37:38.238Z,6.95
2022-12-31T11:40:42.247Z,7.57
2022-12-31T11:43:30.846Z,8.50
2022-12-31T11:46:32.856Z,8.13
2022-12-31T11:49:37.396Z,8.40
2022-12-31T11:52:16.015Z,8.10
2022-12-31T11:55:10.157Z,8.73
2022-12-31T11:57:38.128Z,9.32
2022-12-31T12:00:20.920Z,8.57
2022-12-31T12:02:51.446Z,8.65
2022-12-31T12:05:20.475Z,8.13
2022-12-31T12:07:48.378Z,8.50
2022-12-31T12:10:35.718Z,8.05
2022-12-31T12:13:27.985Z,7.30
2022-12-31T12:15:56.404Z,7.80
2022-12-31T12:18:47.191Z,8.07
2022-12-31T12:21:18.907Z,7.00
2022-12-31T12:24:07.031Z,7.00
2022-12-31T12:26:41.587Z,7.43
2022-12-31T12:29:12.973Z,7.00
2022-12-31T12:31:39.828Z,7.32
2022-12-31T12:34:07.052Z,7.15
2022-12-31T12:36:34.148Z,6.80
2022-12-31T12:39:02.996Z,6.80
2022-12-31T12:41:29.873Z,7.05
2022-12-31T12:44:07.290Z,6.60
2022-12-31T12:46:48.587Z,6.60
2022-12-31T12:49:30.015Z,6.60
2022-12-31T12:52:18.402Z,6.43
2022-12-31T12:54:48.164Z,6.35
2022-12-31T12:57:20.696Z,6.20
2022-12-31T13:00:16.650Z,6.88
2022-12-31T13:03:11.310Z,6.28
2022-12-31T13:06:03.026Z,6.80
2022-12-31T13:08:51.332Z,6.95
2022-12-31T13:11:39.848Z,7.03
2022-12-31T13:14:43.845Z,6.35
2022-12-31T13:17:32.413Z,6.72
2022-12-31T13:20:20.107Z,7.00
2022-12-31T13:22:52.308Z,7.43
2022-12-31T13:25:37.069Z,6.70
2022-12-31T13:28:05.637Z,7.07
2022-12-31T13:30:35.443Z,7.95
2022-12-31T13:33:07.852Z,7.00
2022-12-31T13:35:43.590Z,7.30
2022-12-31T13:38:34.989Z,7.45
2022-12-31T13:41:23.953Z,7.50
2022-12-31T13:44:13.717Z,7.35
2022-12-31T13:46:40.486Z,7.60
2022-12-31T13:49:37.539Z,7.47
2022-12-31T13:52:18.208Z,7.30
2022-12-31T13:55:06.193Z,7.90
2022-12-31T13:57:41.489Z,7.38
2022-12-31T14:00:28.754Z,7.73
2022-12-31T14:03:01.464Z,7.47
2022-12-31T14:05:37.933Z,7.90
2022-12-31T14:08:05.746Z,7.97
2022-12-31T14:10:51.159Z,8.13
2022-12-31T14:13:34.964Z,8.30
2022-12-31T14:16:04.820Z,7.75
2022-12-31T14:18:39.611Z,8.23
2022-12-31T14:21:14.151Z,7.75
2022-12-31T14:23:56.508Z,7.43
2022-12-31T14:26:46.952Z,7.27
2022-12-31T14:29:42.330Z,7.80
2022-12-31T14:32:12.231Z,7.30
2022-12-31T14:35:16.231Z,7.03
2022-12-31T14:37:47.105Z,6.63
2022-12-31T14:40:51.393Z,6.80
2022-12-31T14:43:42.972Z,6.10
2022-12-31T14:46:30.434Z,6.55
2022-12-31T14:49:18.950Z,6.25
2022-12-31T14:51:45.726Z,6.45
2022-12-31T14:54:29.525Z,7.30
2022-12-31T14:56:56.286Z,6.32
2022-12-31T14:59:34.500Z,6.60
2022-12-31T15:02:04.428Z,6.53
2022-12-31T15:04:51.071Z,7.07
2022-12-31T15:07:56.970Z,6.53
2022-12-31T15:11:01.931Z,6.50
2022-12-31T15:13:54.238Z,6.45
2022-12-31T15:16:26.929Z,6.45
2022-12-31T15:19:30.910Z,6.60
2022-12-31T15:22:04.373Z,6.40
2022-12-31T15:24:31.295Z,6.45
2022-12-31T15:27:00.016Z,6.60
2022-12-31T15:29:45.608Z,6.32
2022-12-31T15:32:20.224Z,7.00
2022-12-31T15:34:47.035Z,6.60
2022-12-31T15:37:33.687Z,6.60
2022-12-31T15:40:19.974Z,6.97
2022-12-31T15:43:08.171Z,7.20
2022-12-31T15:45:38.047Z,6.80
2022-12-31T15:48:32.470Z,7.40
2022-12-31T15:51:00.483Z,6.72
2022-12-31T15:53:33.828Z,6.53
2022-12-31T15:56:00.976Z,7.65
2022-12-31T15:58:30.504Z,7.07
2022-12-31T16:01:17.788Z,7.57
2022-12-31T16:03:50.174Z,7.00
2022-12-31T16:06:16.989Z,7.85
2022-12-31T16:08:45.157Z,8.02
2022-12-31T16:11:12.039Z,7.57
2022-12-31T16:13:44.376Z,8.03
2022-12-31T16:16:28.163Z,7.88
2022-12-31T16:18:55.532Z,7.07
2022-12-31T16:21:35.945Z,7.30
2022-12-31T16:24:07.392Z,7.15
2022-12-31T16:26:50.289Z,7.20
2022-12-31T16:29:17.851Z,6.78
2022-12-31T16:31:45.108Z,7.35
2022-12-31T16:34:22.056Z,7.93
2022-12-31T16:36:59.418Z,7.60
2022-12-31T16:39:27.394Z,7.07
2022-12-31T16:42:07.691Z,8.00
2022-12-31T16:44:34.660Z,7.35
2022-12-31T16:47:01.940Z,8.15
2022-12-31T16:49:30.153Z,7.38
2022-12-31T16:52:01.279Z,6.70
2022-12-31T16:54:35.874Z,6.13
2022-12-31T16:57:02.917Z,6.88
2022-12-31T16:59:44.411Z,6.72
2022-12-31T17:02:34.847Z,7.15
2022-12-31T17:05:01.770Z,6.27
2022-12-31T17:07:31.487Z,5.60
2022-12-31T17:10:09.371Z,5.68
2022-12-31T17:13:17.076Z,5.47
2022-12-31T17:15:48.725Z,5.85
2022-12-31T17:18:20.093Z,5.20
2022-12-31T17:20:47.053Z,4.72
2022-12-31T17:23:27.080Z,4.70
2022-12-31T17:26:07.789Z,4.97
2022-12-31T17:28:45.396Z,4.32
2022-12-31T17:31:43.331Z,4.67
2022-12-31T17:34:13.269Z,4.15
2022-12-31T17:36:58.440Z,4.28
2022-12-31T17:39:25.901Z,4.47
2022-12-31T17:41:55.432Z,4.25
2022-12-31T17:44:24.136Z,4.87
2022-12-31T17:46:51.008Z,4.20
2022-12-31T17:49:19.329Z,4.32
2022-12-31T17:51:47.924Z,4.13
2022-12-31T17:54:15.591Z,6.45
2022-12-31T17:56:42.465Z,5.77
2022-12-31T17:59:11.028Z,5.40
2022-12-31T18:01:37.977Z,5.40
2022-12-31T18:04:09.169Z,5.25
2022-12-31T18:06:35.978Z,4.30
2022-12-31T18:09:02.748Z,4.70
2022-12-31T18:11:29.591Z,4.40
2022-12-31T18:13:56.355Z,4.43
2022-12-31T18:16:23.242Z,3.88
2022-12-31T18:18:50.149Z,4.25
2022-12-31T18:21:36.216Z,3.70
2022-12-31T18:26:29.280Z,4.03
2022-12-31T18:29:00.393Z,4.45
2022-12-31T18:31:28.603Z,3.65
2022-12-31T18:33:56.232Z,3.50
2022-12-31T18:36:23.672Z,3.20
2022-12-31T18:38:50.555Z,3.70
2022-12-31T18:41:24.752Z,3.58
2022-12-31T18:43:51.618Z,3.65
2022-12-31T18:46:19.761Z,4.00
2022-12-31T18:48:46.728Z,4.00
2022-12-31T18:51:18.379Z,4.10
2022-12-31T18:53:45.248Z,3.83
2022-12-31T18:56:19.310Z,4.43
2022-12-31T18:58:46.151Z,3.83
2022-12-31T19:01:35.530Z,4.03
2022-12-31T19:04:12.564Z,3.67
2022-12-31T19:06:39.365Z,3.83
2022-12-31T19:09:13.250Z,3.85
2022-12-31T19:11:52.911Z,3.87
2022-12-31T19:14:23.114Z,4.00
2022-12-31T19:16:50.700Z,3.60
2022-12-31T19:19:17.753Z,3.97
2022-12-31T19:21:44.733Z,4.47
2022-12-31T19:24:21.373Z,3.90
2022-12-31T19:26:48.249Z,4.15
2022-12-31T19:29:19.451Z,4.30
2022-12-31T19:31:46.458Z,4.07
2022-12-31T19:34:13.292Z,3.53
2022-12-31T19:36:44.153Z,3.70
2022-12-31T19:39:15.195Z,3.20
2022-12-31T19:41:43.249Z,4.00
2022-12-31T19:44:19.509Z,3.90
2022-12-31T19:46:46.452Z,3.17
2022-12-31T19:49:13.849Z,3.67
2022-12-31T19:51:40.881Z,3.58
2022-12-31T19:54:07.917Z,3.75
2022-12-31T19:56:34.712Z,4.63
2022-12-31T19:59:08.650Z,3.70
2022-12-31T20:01:35.612Z,3.97
2022-12-31T20:04:02.684Z,4.32
2022-12-31T20:06:29.485Z,4.28
2022-12-31T20:08:56.410Z,4.32
2022-12-31T20:11:24.131Z,4.80
2022-12-31T20:13:52.429Z,4.63
2022-12-31T20:16:20.476Z,4.90
2022-12-31T20:18:47.627Z,4.88
2022-12-31T20:21:17.901Z,4.63
2022-12-31T20:23:44.844Z,4.20
2022-12-31T20:26:11.691Z,3.63
2022-12-31T20:28:38.772Z,3.80
2022-12-31T20:31:09.653Z,5.18
2022-12-31T20:33:36.511Z,5.25
2022-12-31T20:36:04.637Z,4.85
2022-12-31T20:38:32.159Z,5.00
2022-12-31T20:41:09.494Z,5.47
2022-12-31T20:43:36.650Z,4.63
2022-12-31T20:46:15.182Z,4.50
2022-12-31T20:48:43.220Z,4.50
2022-12-31T20:51:10.053Z,5.87
2022-12-31T20:53:36.849Z,5.65
2022-12-31T20:56:07.707Z,4.97
2022-12-31T20:58:34.816Z,4.40
2022-12-31T21:01:01.838Z,4.03
2022-12-31T21:04:03.657Z,3.70
2022-12-31T21:06:15.779Z,4.00
2022-12-31T21:08:42.654Z,3.30
2022-12-31T21:11:28.403Z,3.60
2022-12-31T21:13:56.042Z,2.83
2022-12-31T21:16:23.020Z,4.47
2022-12-31T21:18:49.868Z,2.97
2022-12-31T21:21:16.792Z,4.00
2022-12-31T21:23:43.604Z,5.68
2022-12-31T21:26:10.420Z,3.83
2022-12-31T21:28:37.235Z,8.37
2022-12-31T21:31:06.280Z,4.22
2022-12-31T21:33:33.154Z,3.45
2022-12-31T21:36:04.446Z,5.28
2022-12-31T21:38:31.892Z,5.18
2022-12-31T21:41:02.985Z,4.60
2022-12-31T21:43:29.891Z,6.25
2022-12-31T21:46:03.848Z,5.93
2022-12-31T21:48:30.851Z,6.22
2022-12-31T21:51:13.002Z,6.13
2022-12-31T21:53:40.299Z,5.83
2022-12-31T21:56:11.652Z,5.43
2022-12-31T21:58:40.202Z,5.13
2022-12-31T22:01:25.594Z,5.03
2022-12-31T22:03:52.510Z,5.05
2022-12-31T22:06:23.069Z,5.57
2022-12-31T22:08:54.121Z,5.18
2022-12-31T22:11:22.171Z,4.97
2022-12-31T22:13:49.122Z,4.43
2022-12-31T22:16:17.299Z,4.10
2022-12-31T22:18:44.510Z,4.63
2022-12-31T22:21:18.850Z,4.05
2022-12-31T22:23:47.897Z,4.00
2022-12-31T22:26:15.473Z,3.78
2022-12-31T22:28:43.138Z,4.20
2022-12-31T22:31:13.690Z,4.20
2022-12-31T22:33:40.569Z,4.13
2022-12-31T22:36:09.994Z,3.75
2022-12-31T22:38:36.809Z,3.67
2022-12-31T22:41:08.231Z,3.60
2022-12-31T22:43:36.409Z,3.23
2022-12-31T22:46:10.345Z,3.50
2022-12-31T22:48:37.763Z,3.15
2022-12-31T22:51:04.828Z,3.50
2022-12-31T22:53:31.716Z,3.60
2022-12-31T22:55:58.518Z,3.20
2022-12-31T22:58:25.811Z,4.00
2022-12-31T23:00:52.795Z,4.80
2022-12-31T23:03:19.655Z,8.15
2022-12-31T23:05:53.623Z,15.88
2022-12-31T23:08:23.655Z,25.63
2022-12-31T23:11:06.161Z,55.78
2022-12-31T23:13:58.869Z,70.30
2022-12-31T23:16:45.448Z,77.47
2022-12-31T23:19:30.766Z,90.25
2022-12-31T23:22:16.248Z,102.07
2022-12-31T23:24:43.096Z,97.07
2022-12-31T23:27:10.191Z,100.25
2022-12-31T23:29:46.831Z,85.97
2022-12-31T23:32:17.509Z,80.18
2022-12-31T23:34:45.089Z,58.70
2022-12-31T23:37:15.016Z,56.78
2022-12-31T23:39:42.117Z,47.50
2022-12-31T23:42:08.974Z,42.47
2022-12-31T23:44:35.762Z,38.85
2022-12-31T23:47:02.691Z,38.63
2022-12-31T23:49:30.175Z,37.10
2022-12-31T23:51:57.011Z,33.47
2022-12-31T23:54:23.853Z,31.70
2022-12-31T23:56:50.687Z,29.27
2022-12-31T23:59:18.533Z,28.83
